Inglewood, Florida
Current Conditions -  °F | °C
As of 2:29 AM on Thursday 23 Oct 2014 (Local Time) from KPGD Reporting Station
Broken Clouds Broken Clouds  
Wind Chill: 70°   Ceiling: 2900
Heat Index: 70°   Visibility: 10mi
Dew Point: 65°   Wind: 8mph
Humidity: 84%   Direction: 50°NE
Pressure: 29.95"   Gusts: NA
Location:  26.9253°N, 82.3009°W
Report Text: KPGD 230629Z AUTO 05007KT 10SM BKN029 BKN036 21/18 A2995 RMK AO2 T02110183
Loading
Personal Weather Stations






























Interactive Weather Map New forecast layout! Learn more

10-Day Weather Forecast

Advertisements
Track Severe Weather on mobile